Time;durP1;ratioP1;P1;durP2;ratioP2;P2;SDS_P1;SDS_P2;PMS_P1;PMS_P2;Temp;Humidity;BMP_temperature;BMP_pressure;BME280_temperature;BME280_humidity;BME280_pressure;Samples;Min_cycle;Max_cycle;Signal;HPM_P1;HPM_P2
2022/07/03 00:01:52;;;;;;;15.57;2.35;;;;;;;46.12;7.76;100396.19;5091778;28;20024;-63
2022/07/03 00:04:20;;;;;;;22.48;2.78;;;;;;;45.18;8.88;100388.78;5087990;28;20035;-63
2022/07/03 00:06:47;;;;;;;16.23;2.42;;;;;;;45.06;8.74;100401.47;5091629;28;20028;-64
2022/07/03 00:09:14;;;;;;;25.65;2.80;;;;;;;45.38;8.15;100384.97;5090544;28;20036;-65
2022/07/03 00:11:42;;;;;;;14.25;2.13;;;;;;;44.19;9.09;100402.59;5084711;28;20033;-65
2022/07/03 00:14:10;;;;;;;11.10;1.80;;;;;;;43.96;8.92;100401.53;5080269;28;20032;-65
2022/07/03 00:16:39;;;;;;;8.60;1.52;;;;;;;44.45;8.94;100385.38;5083890;28;20024;-65
2022/07/03 00:19:07;;;;;;;9.45;1.80;;;;;;;44.35;9.17;100395.44;5080928;28;20033;-63
2022/07/03 00:21:42;;;;;;;5.78;1.40;;;;;;;43.60;9.03;100387.81;5089250;28;20067;-64
2022/07/03 00:24:15;;;;;;;5.93;1.00;;;;;;;43.37;9.02;100387.56;5083051;28;20378;-61
2022/07/03 00:26:45;;;;;;;6.15;1.30;;;;;;;44.23;8.46;100385.97;5075334;28;20040;-64
2022/07/03 00:29:15;;;;;;;9.98;1.60;;;;;;;44.14;8.92;100382.47;5084861;28;20047;-65
2022/07/03 00:31:42;;;;;;;9.65;1.60;;;;;;;44.14;7.71;100399.66;5080767;28;20040;-62
2022/07/03 00:34:13;;;;;;;7.47;1.40;;;;;;;43.91;7.97;100370.78;5083086;28;20039;-64
2022/07/03 00:36:41;;;;;;;11.77;1.67;;;;;;;43.60;7.92;100367.78;5077787;28;20036;-64
2022/07/03 00:39:08;;;;;;;9.40;1.30;;;;;;;43.64;8.52;100354.06;5071420;28;20028;-63
2022/07/03 00:41:36;;;;;;;9.88;2.00;;;;;;;43.38;9.54;100357.66;5085034;28;20048;-64
2022/07/03 00:44:04;;;;;;;6.70;1.30;;;;;;;43.98;8.62;100358.84;5083164;28;20012;-64
2022/07/03 00:46:31;;;;;;;6.95;1.20;;;;;;;43.17;9.11;100361.78;5088858;28;20031;-64
2022/07/03 00:48:59;;;;;;;7.43;1.20;;;;;;;42.76;9.47;100353.13;5087863;28;20043;-63
2022/07/03 00:51:29;;;;;;;5.68;1.20;;;;;;;43.04;9.45;100358.47;5081198;28;20490;-62
2022/07/03 00:54:01;;;;;;;8.00;1.60;;;;;;;43.01;9.59;100353.75;5079044;28;20045;-63
2022/07/03 00:56:30;;;;;;;11.77;2.17;;;;;;;43.52;9.68;100358.88;5081654;28;20487;-65
2022/07/03 00:59:01;;;;;;;17.20;2.00;;;;;;;42.58;10.08;100359.09;5082346;28;20029;-63
2022/07/03 01:01:34;;;;;;;7.88;1.50;;;;;;;43.09;9.98;100340.59;5086130;28;20043;-63
2022/07/03 01:04:09;;;;;;;9.88;1.60;;;;;;;42.69;9.65;100372.75;5087423;28;20077;-61
2022/07/03 01:06:49;;;;;;;12.32;1.67;;;;;;;42.46;9.67;100360.16;5086159;28;20036;-63
2022/07/03 01:09:23;;;;;;;8.88;1.83;;;;;;;41.84;10.53;100352.56;5083249;28;20119;-63
2022/07/03 01:12:05;;;;;;;11.13;1.60;;;;;;;42.19;10.51;100359.19;5082908;28;20051;-65
2022/07/03 01:15:02;;;;;;;17.60;2.90;;;;;;;41.94;10.58;100362.59;5080699;28;20035;-63
2022/07/03 01:17:49;;;;;;;14.38;2.17;;;;;;;41.94;10.39;100356.88;5086225;28;20486;-64
2022/07/03 01:20:21;;;;;;;9.07;1.60;;;;;;;41.48;10.26;100365.84;5083001;28;20410;-64
2022/07/03 01:22:58;;;;;;;8.18;1.70;;;;;;;41.80;10.77;100369.84;5078583;28;20525;-64
2022/07/03 01:25:44;;;;;;;13.50;2.10;;;;;;;41.72;10.58;100367.88;5084346;28;20452;-62
2022/07/03 01:28:20;;;;;;;10.10;1.85;;;;;;;41.72;10.34;100359.31;5089223;28;20034;-64
2022/07/03 01:30:54;;;;;;;10.50;1.63;;;;;;;41.47;10.91;100363.44;5084596;28;20612;-62
2022/07/03 01:33:31;;;;;;;8.48;1.77;;;;;;;41.54;11.08;100357.38;5080227;28;20549;-62
2022/07/03 01:36:09;;;;;;;13.52;2.10;;;;;;;41.22;11.02;100371.22;5089074;28;20079;-63
2022/07/03 01:38:40;;;;;;;10.88;1.50;;;;;;;40.86;10.64;100360.81;5077938;28;20029;-59
2022/07/03 01:41:09;;;;;;;5.05;1.23;;;;;;;40.56;10.56;100384.66;5084142;28;20028;-64
2022/07/03 01:43:44;;;;;;;6.90;1.30;;;;;;;40.35;10.52;100367.28;5080153;28;20032;-64
2022/07/03 01:46:13;;;;;;;7.90;1.38;;;;;;;40.66;11.12;100380.53;5080563;28;20063;-63
2022/07/03 01:48:43;;;;;;;9.57;1.90;;;;;;;40.38;11.48;100377.72;5080411;28;20043;-64
2022/07/03 01:51:17;;;;;;;7.45;1.52;;;;;;;40.21;11.45;100381.41;5083335;28;20036;-61
2022/07/03 01:53:45;;;;;;;;;;;;;;;40.14;12.34;100380.47;5078012;28;20048;-62
2022/07/03 01:56:14;;;;;;;7.68;2.08;;;;;;;40.04;12.61;100387.47;5086161;28;19920;-63
2022/07/03 01:58:41;;;;;;;15.13;2.13;;;;;;;39.97;13.05;100384.16;5088225;28;20036;-61
2022/07/03 02:01:16;;;;;;;13.65;2.47;;;;;;;39.80;12.74;100390.13;5077999;28;20082;-62
2022/07/03 02:03:52;;;;;;;13.32;1.65;;;;;;;39.48;13.08;100385.03;5085509;28;20039;-64
2022/07/03 02:06:53;;;;;;;13.85;2.45;;;;;;;39.47;13.25;100389.94;5079824;28;20035;-62
2022/07/03 02:09:28;;;;;;;15.70;2.90;;;;;;;39.44;13.04;100378.72;5080807;28;20043;-63
2022/07/03 02:11:55;;;;;;;12.38;2.10;;;;;;;39.24;13.89;100394.16;5079179;28;20116;-61
2022/07/03 02:14:48;;;;;;;15.20;2.30;;;;;;;39.04;14.13;100390.94;5083179;28;20115;-63
2022/07/03 02:17:21;;;;;;;14.63;2.30;;;;;;;38.76;14.15;100390.03;5086692;28;20032;-61
2022/07/03 02:19:50;;;;;;;18.53;2.57;;;;;;;38.71;14.34;100389.88;5080985;28;20028;-64
2022/07/03 02:22:20;;;;;;;24.35;2.90;;;;;;;38.56;14.61;100396.06;5090738;28;20116;-61
2022/07/03 02:24:47;;;;;;;13.30;2.45;;;;;;;38.20;14.98;100390.97;5087148;28;20024;-63
2022/07/03 02:27:23;;;;;;;27.50;2.70;;;;;;;37.81;15.48;100398.06;5074824;28;20081;-61
2022/07/03 02:30:01;;;;;;;20.58;2.20;;;;;;;37.61;15.17;100415.38;5075240;28;20379;-62
2022/07/03 02:32:30;;;;;;;22.20;2.70;;;;;;;37.42;15.71;100411.56;5067727;28;20471;-63
2022/07/03 02:35:10;;;;;;;10.13;2.22;;;;;;;37.39;15.34;100403.19;5085009;28;20048;-63
2022/07/03 02:38:10;;;;;;;14.30;2.50;;;;;;;37.19;15.22;100407.06;5083088;28;20467;-63
2022/07/03 02:40:40;;;;;;;15.32;2.28;;;;;;;37.09;15.46;100416.69;5079443;28;20123;-62
2022/07/03 02:43:38;;;;;;;20.65;2.55;;;;;;;36.89;15.83;100413.31;5085207;28;20067;-63
2022/07/03 02:49:19;;;;;;;13.13;2.13;;;;;;;36.57;16.53;100425.59;5090775;28;20088;-63
2022/07/03 02:51:54;;;;;;;19.65;2.80;;;;;;;36.44;15.92;100438.91;5095766;27;20025;-62
2022/07/03 02:54:21;;;;;;;11.25;2.00;;;;;;;36.36;16.17;100434.72;5077404;28;20028;-61
2022/07/03 02:56:51;;;;;;;13.85;2.35;;;;;;;36.22;16.34;100441.56;5075904;28;20383;-61
2022/07/03 02:59:46;;;;;;;17.60;2.05;;;;;;;36.18;16.28;100458.63;5082560;28;20063;-62
2022/07/03 03:02:19;;;;;;;;;;;;;;;36.06;16.62;100433.91;5085854;28;20036;-61
2022/07/03 03:04:58;;;;;;;16.45;2.10;;;;;;;35.94;16.65;100446.78;5081220;28;19912;-60
2022/07/03 03:07:41;;;;;;;13.82;2.10;;;;;;;35.82;16.21;100433.34;5078224;28;20085;-61
2022/07/03 03:10:09;;;;;;;22.08;3.00;;;;;;;35.78;16.20;100438.31;5082426;28;20039;-59
2022/07/03 03:12:41;;;;;;;11.40;2.22;;;;;;;35.66;16.42;100442.66;5083312;28;20039;-62
2022/07/03 03:15:12;;;;;;;14.90;2.72;;;;;;;35.55;16.41;100439.31;5088072;28;20117;-61
2022/07/03 03:17:50;;;;;;;14.15;2.92;;;;;;;35.55;16.60;100449.81;5081002;28;20131;-61
2022/07/03 03:20:27;;;;;;;15.80;2.55;;;;;;;35.49;16.45;100446.72;5078684;28;20036;-61
2022/07/03 03:23:12;;;;;;;19.63;2.30;;;;;;;35.46;16.63;100461.75;5082280;28;20114;-62
2022/07/03 03:25:38;;;;;;;14.48;3.20;;;;;;;35.38;16.41;100458.31;5084667;28;20104;-62
2022/07/03 03:28:06;;;;;;;12.63;2.33;;;;;;;35.35;16.67;100456.34;5077648;28;20029;-64
2022/07/03 03:30:36;;;;;;;17.00;3.20;;;;;;;35.25;16.92;100470.72;5079006;28;20047;-63
2022/07/03 03:33:08;;;;;;;16.42;2.40;;;;;;;35.21;16.59;100472.84;5084366;28;20040;-63
2022/07/03 03:35:36;;;;;;;17.65;2.78;;;;;;;35.10;17.06;100467.44;5083062;28;20394;-62
2022/07/03 03:38:03;;;;;;;18.35;3.70;;;;;;;34.96;17.40;100474.19;5086420;28;20111;-60
2022/07/03 03:40:32;;;;;;;16.45;2.40;;;;;;;34.86;17.13;100486.56;5087354;28;20687;-62
2022/07/03 03:43:00;;;;;;;12.98;2.78;;;;;;;34.81;17.07;100495.47;5085129;28;20027;-61
2022/07/03 03:45:27;;;;;;;14.30;2.95;;;;;;;34.63;17.11;100495.06;5079810;28;20037;-62
2022/07/03 03:47:54;;;;;;;14.73;3.13;;;;;;;34.51;17.44;100510.66;5086540;28;20370;-62
2022/07/03 03:50:21;;;;;;;14.48;3.47;;;;;;;34.37;17.47;100503.25;5083423;28;20093;-62
2022/07/03 03:52:49;;;;;;;17.27;3.05;;;;;;;34.36;17.92;100498.84;5087106;28;20071;-60
2022/07/03 03:55:15;;;;;;;21.33;2.75;;;;;;;34.37;18.12;100517.38;5086882;28;20534;-62
2022/07/03 03:57:42;;;;;;;10.40;2.60;;;;;;;34.24;18.47;100513.56;5078720;28;20036;-62
2022/07/03 04:00:09;;;;;;;11.60;2.05;;;;;;;34.24;18.25;100519.19;5076386;28;20480;-60
2022/07/03 04:02:42;;;;;;;12.63;1.88;;;;;;;34.19;17.72;100519.72;5082541;28;20028;-61
2022/07/03 04:05:09;;;;;;;9.75;2.10;;;;;;;34.25;18.46;100517.97;5084264;28;20189;-62
2022/07/03 04:07:36;;;;;;;19.42;2.85;;;;;;;34.10;18.74;100523.06;5089107;28;20486;-61
2022/07/03 04:10:03;;;;;;;15.10;2.45;;;;;;;34.07;18.09;100525.97;5084063;28;20046;-61
2022/07/03 04:12:29;;;;;;;13.77;2.17;;;;;;;33.99;18.68;100527.34;5088579;28;20062;-62
2022/07/03 04:14:59;;;;;;;12.98;2.30;;;;;;;33.96;18.71;100537.47;5063020;28;20397;-61
2022/07/03 04:17:26;;;;;;;10.05;1.92;;;;;;;33.87;18.59;100535.16;5082481;28;20039;-62
2022/07/03 04:19:52;;;;;;;9.65;2.17;;;;;;;33.82;18.77;100524.38;5084783;28;20032;-61
2022/07/03 04:22:19;;;;;;;11.90;2.05;;;;;;;33.76;18.54;100545.81;5083957;28;20363;-61
2022/07/03 04:24:46;;;;;;;11.75;2.13;;;;;;;33.72;18.28;100544.25;5082733;28;20032;-60
2022/07/03 04:27:13;;;;;;;15.82;2.30;;;;;;;33.60;18.51;100551.31;5089378;28;20432;-61
2022/07/03 04:29:40;;;;;;;13.30;1.92;;;;;;;33.50;18.81;100552.25;5076725;28;20513;-62
2022/07/03 04:32:07;;;;;;;21.17;2.22;;;;;;;33.57;18.66;100552.16;5083828;28;20390;-63
2022/07/03 04:34:34;;;;;;;21.25;2.53;;;;;;;33.49;18.18;100565.56;5070228;28;20044;-62
2022/07/03 04:37:00;;;;;;;13.80;2.22;;;;;;;33.45;18.23;100555.56;5087154;28;20058;-61
2022/07/03 04:39:27;;;;;;;15.68;2.55;;;;;;;33.37;17.64;100556.88;5084487;28;20044;-61
2022/07/03 04:41:54;;;;;;;23.85;3.00;;;;;;;33.33;17.31;100571.81;5081005;28;20028;-62
2022/07/03 04:44:22;;;;;;;30.13;3.10;;;;;;;33.27;17.67;100570.69;5080766;28;20367;-62
2022/07/03 04:46:49;;;;;;;21.50;3.60;;;;;;;33.18;17.63;100569.59;5076851;28;20123;-63
2022/07/03 04:49:16;;;;;;;17.92;2.60;;;;;;;33.18;17.10;100584.47;5086041;28;20032;-62
2022/07/03 04:51:43;;;;;;;10.88;3.85;;;;;;;33.10;16.68;100588.63;5081150;28;20101;-63
2022/07/03 04:54:09;;;;;;;15.48;4.05;;;;;;;33.04;16.80;100579.06;5084062;28;20015;-60
2022/07/03 04:56:37;;;;;;;21.67;8.30;;;;;;;33.06;16.14;100593.50;5079559;28;20040;-63
2022/07/03 04:59:03;;;;;;;13.27;5.68;;;;;;;32.94;16.01;100591.25;5083348;28;20482;-63
2022/07/03 05:01:30;;;;;;;22.60;5.57;;;;;;;32.91;16.05;100578.00;5081537;28;20044;-61
2022/07/03 05:03:57;;;;;;;22.95;5.18;;;;;;;32.78;15.80;100593.81;5085914;28;20077;-63
2022/07/03 05:06:24;;;;;;;14.02;4.25;;;;;;;32.68;16.33;100596.34;5084533;28;20028;-61
2022/07/03 05:08:51;;;;;;;11.82;6.60;;;;;;;32.62;16.10;100598.00;5078670;28;20506;-62
2022/07/03 05:11:18;;;;;;;15.88;3.47;;;;;;;32.51;15.31;100602.97;5082447;28;20024;-61
2022/07/03 05:13:44;;;;;;;8.70;2.78;;;;;;;32.42;15.63;100595.00;5089766;28;20516;-61
2022/07/03 05:16:11;;;;;;;15.13;4.45;;;;;;;32.41;15.01;100595.41;5084038;28;20090;-60
2022/07/03 05:18:38;;;;;;;8.65;2.42;;;;;;;32.41;14.93;100598.22;5077758;28;20474;-60
2022/07/03 05:21:05;;;;;;;17.48;2.65;;;;;;;32.41;15.19;100587.78;5082159;28;20040;-60
2022/07/03 05:23:31;;;;;;;11.68;2.22;;;;;;;32.41;14.65;100592.59;5075766;28;20508;-60
2022/07/03 05:25:59;;;;;;;16.73;3.58;;;;;;;32.32;14.73;100595.13;5084565;28;20036;-61
2022/07/03 05:28:26;;;;;;;11.70;6.72;;;;;;;32.11;15.02;100588.41;5078459;28;20020;-60
2022/07/03 05:30:53;;;;;;;11.70;2.45;;;;;;;31.96;15.03;100583.34;5082557;28;20116;-61
2022/07/03 05:33:20;;;;;;;14.18;3.90;;;;;;;32.00;14.95;100606.63;5081582;28;20040;-60
2022/07/03 05:35:47;;;;;;;7.20;2.53;;;;;;;31.99;15.04;100599.41;5084304;28;20072;-63
2022/07/03 05:39:31;;;;;;;15.88;3.72;;;;;;;31.97;14.28;100599.81;5086521;28;20024;-61
2022/07/03 05:41:00;;;;;;;10.45;4.68;;;;;;;31.91;14.07;100589.41;5078496;28;20036;-60
2022/07/03 05:43:26;;;;;;;12.75;5.88;;;;;;;31.77;14.54;100593.13;5085712;28;20533;-61
2022/07/03 05:45:53;;;;;;;6.38;2.58;;;;;;;31.67;14.47;100582.75;5083109;28;20043;-60
2022/07/03 05:48:20;;;;;;;7.85;3.50;;;;;;;31.74;14.57;100588.31;5084503;28;20379;-60
2022/07/03 05:50:47;;;;;;;15.75;2.80;;;;;;;31.77;14.55;100582.69;5081235;28;20029;-62
2022/07/03 05:53:14;;;;;;;13.20;2.67;;;;;;;31.95;14.75;100590.16;5085968;28;20097;-61
2022/07/03 05:55:41;;;;;;;11.63;2.50;;;;;;;31.96;14.25;100586.97;5077125;28;20032;-62
2022/07/03 05:58:08;;;;;;;9.10;2.28;;;;;;;31.96;14.19;100600.19;5081598;28;20395;-61
2022/07/03 06:00:34;;;;;;;10.23;2.95;;;;;;;31.94;13.85;100597.81;5076063;28;20019;-60
2022/07/03 06:03:04;;;;;;;7.38;2.40;;;;;;;31.90;14.16;100599.06;5080078;28;20029;-60
2022/07/03 06:05:32;;;;;;;12.25;3.92;;;;;;;31.79;13.92;100596.34;5080271;28;20031;-62
2022/07/03 06:07:59;;;;;;;13.40;3.25;;;;;;;31.72;14.04;100602.78;5080498;28;20029;-62
2022/07/03 06:10:27;;;;;;;8.88;2.30;;;;;;;31.71;13.57;100605.97;5080391;28;20068;-62
2022/07/03 06:12:54;;;;;;;6.82;2.70;;;;;;;31.67;13.47;100608.03;5079834;28;20039;-62
2022/07/03 06:15:21;;;;;;;11.38;1.90;;;;;;;31.59;13.60;100593.22;5079498;28;20035;-63
2022/07/03 06:17:48;;;;;;;12.60;2.10;;;;;;;31.58;13.28;100609.28;5085386;28;20501;-61
2022/07/03 06:20:15;;;;;;;16.27;2.63;;;;;;;31.62;13.41;100612.09;5092987;28;20028;-60
2022/07/03 06:22:42;;;;;;;7.57;1.55;;;;;;;31.53;13.50;100595.66;5101493;28;20040;-61
2022/07/03 06:25:09;;;;;;;12.35;1.95;;;;;;;31.52;13.21;100610.13;5089926;28;20028;-63
2022/07/03 06:27:36;;;;;;;11.35;2.10;;;;;;;31.44;13.34;100606.56;5089730;28;20114;-62
2022/07/03 06:30:04;;;;;;;8.02;2.00;;;;;;;31.39;13.16;100601.34;5105516;28;20062;-62
2022/07/03 06:32:31;;;;;;;6.25;1.70;;;;;;;31.39;13.20;100597.75;5093856;28;20028;-61
2022/07/03 06:34:59;;;;;;;7.32;1.60;;;;;;;31.29;13.17;100601.44;5093698;28;20040;-62
2022/07/03 06:37:28;;;;;;;10.05;2.03;;;;;;;31.26;13.52;100592.63;5094024;28;20028;-62
2022/07/03 06:39:55;;;;;;;5.40;1.42;;;;;;;31.27;13.30;100593.41;5090601;28;20028;-61
2022/07/03 06:42:22;;;;;;;5.40;1.50;;;;;;;31.14;13.38;100583.81;5096120;28;20032;-64
2022/07/03 06:44:48;;;;;;;13.23;1.73;;;;;;;31.20;13.41;100596.25;5094404;28;20027;-64
2022/07/03 06:47:15;;;;;;;14.32;1.70;;;;;;;31.16;13.38;100587.81;5094118;28;20028;-64
2022/07/03 06:49:43;;;;;;;9.43;1.50;;;;;;;31.23;13.29;100603.84;5094430;28;20027;-62
2022/07/03 06:52:11;;;;;;;7.68;1.45;;;;;;;31.31;12.92;100597.00;5109823;28;20036;-62
2022/07/03 06:54:39;;;;;;;7.93;1.30;;;;;;;31.26;12.90;100594.63;5097197;28;20023;-63
2022/07/03 06:57:06;;;;;;;10.50;1.88;;;;;;;31.26;12.97;100608.69;5088887;28;20032;-60
2022/07/03 06:59:33;;;;;;;8.02;1.98;;;;;;;31.15;13.11;100597.44;5093007;28;20031;-61
2022/07/03 07:02:00;;;;;;;7.97;2.13;;;;;;;30.99;13.06;100599.94;5094121;28;20082;-62
2022/07/03 07:04:26;;;;;;;6.28;1.60;;;;;;;30.93;13.11;100591.13;5110153;28;20469;-62
2022/07/03 07:06:53;;;;;;;6.95;1.15;;;;;;;31.01;12.88;100596.72;5099364;28;20036;-61
2022/07/03 07:09:20;;;;;;;6.03;1.20;;;;;;;30.95;13.02;100599.94;5101912;28;20028;-63
2022/07/03 07:11:47;;;;;;;5.85;1.40;;;;;;;30.93;12.89;100596.75;5106967;28;20027;-63
2022/07/03 07:14:13;;;;;;;6.18;1.50;;;;;;;30.82;13.16;100600.78;5096228;28;20378;-63
2022/07/03 07:16:40;;;;;;;11.45;1.80;;;;;;;30.76;13.21;100597.59;5108347;28;20074;-63
2022/07/03 07:19:07;;;;;;;12.68;1.95;;;;;;;30.59;13.32;100579.59;5101159;28;20031;-62
2022/07/03 07:21:35;;;;;;;8.85;1.50;;;;;;;30.77;13.48;100593.59;5100972;28;20032;-63
2022/07/03 07:24:01;;;;;;;8.10;1.40;;;;;;;30.76;13.51;100597.59;5093633;28;20024;-62
2022/07/03 07:26:28;;;;;;;5.32;1.60;;;;;;;30.73;13.55;100590.00;5093154;28;20035;-62
2022/07/03 07:28:54;;;;;;;5.85;1.10;;;;;;;30.87;13.52;100600.34;5091543;28;20031;-61
2022/07/03 07:31:21;;;;;;;3.50;1.40;;;;;;;30.75;13.71;100590.41;5102730;28;20031;-61
2022/07/03 07:33:48;;;;;;;3.92;1.52;;;;;;;30.79;13.31;100593.19;5098545;28;20118;-63
2022/07/03 07:36:14;;;;;;;4.93;1.27;;;;;;;30.79;13.44;100596.78;5109441;28;20123;-62
2022/07/03 07:38:41;;;;;;;8.75;1.95;;;;;;;30.68;13.23;100596.81;5097308;28;20023;-63
2022/07/03 07:41:09;;;;;;;4.60;1.27;;;;;;;30.78;13.37;100612.03;5107644;28;20119;-62
2022/07/03 07:43:35;;;;;;;4.15;0.98;;;;;;;30.61;13.27;100593.22;5107753;28;20389;-63
2022/07/03 07:46:02;;;;;;;8.20;1.27;;;;;;;30.62;12.95;100603.25;5116576;27;20060;-62
2022/07/03 07:48:29;;;;;;;8.95;1.50;;;;;;;30.58;13.00;100594.81;5113703;28;20044;-62
2022/07/03 07:50:57;;;;;;;6.05;1.27;;;;;;;30.72;12.89;100602.44;5103531;28;20034;-62
2022/07/03 07:53:23;;;;;;;2.90;1.00;;;;;;;30.64;12.95;100589.63;5105958;28;20441;-61
2022/07/03 07:55:50;;;;;;;5.13;1.00;;;;;;;30.66;12.94;100593.63;5105205;28;20051;-61
2022/07/03 07:58:17;;;;;;;5.47;1.30;;;;;;;30.54;13.13;100590.44;5098691;28;20028;-63
2022/07/03 08:06:18;;;;;;;4.05;0.88;;;;;;;30.55;12.50;100606.06;5098362;28;20123;-60
2022/07/03 08:08:44;;;;;;;4.40;1.00;;;;;;;30.49;12.85;100600.03;5101219;28;20027;-62
2022/07/03 08:11:11;;;;;;;4.63;1.00;;;;;;;30.46;12.63;100595.25;5107720;28;20093;-63
2022/07/03 08:13:38;;;;;;;5.55;0.90;;;;;;;30.33;12.65;100606.06;5108976;28;20073;-61
2022/07/03 08:16:05;;;;;;;2.38;0.80;;;;;;;30.34;12.34;100610.50;5099963;28;20033;-62
2022/07/03 08:18:32;;;;;;;3.88;1.00;;;;;;;30.11;12.69;100601.69;5112758;28;20051;-60
2022/07/03 08:20:58;;;;;;;4.22;1.05;;;;;;;30.09;13.01;100604.09;5103390;28;20119;-61
2022/07/03 08:23:25;;;;;;;5.40;1.00;;;;;;;30.19;12.53;100603.28;5104044;28;20051;-62
2022/07/03 08:25:52;;;;;;;5.15;0.90;;;;;;;30.01;12.43;100594.88;5104923;28;20035;-62
2022/07/03 08:28:18;;;;;;;3.92;0.95;;;;;;;30.11;12.60;100601.69;5113731;28;20016;-63
2022/07/03 08:30:45;;;;;;;5.07;1.00;;;;;;;30.12;12.27;100608.88;5110588;28;20044;-62
2022/07/03 08:33:12;;;;;;;4.00;1.27;;;;;;;29.97;12.67;100599.63;5104903;28;20042;-63
2022/07/03 08:35:39;;;;;;;3.50;0.88;;;;;;;30.10;12.65;100604.88;5100404;28;20092;-61
2022/07/03 08:38:06;;;;;;;4.72;1.05;;;;;;;29.95;12.85;100613.25;5093350;28;20116;-62
2022/07/03 08:40:34;;;;;;;5.97;0.90;;;;;;;29.96;12.52;100622.47;5081327;28;20172;-62
2022/07/03 08:43:03;;;;;;;2.88;0.90;;;;;;;30.06;12.50;100613.31;5106480;28;20096;-62
2022/07/03 08:45:33;;;;;;;4.35;0.70;;;;;;;29.98;12.71;100608.84;5104769;28;20031;-64
2022/07/03 08:48:02;;;;;;;3.17;1.10;;;;;;;29.90;12.44;100612.84;5098673;28;20032;-61
2022/07/03 08:50:32;;;;;;;2.72;0.90;;;;;;;29.83;12.46;100612.88;5110859;28;20054;-62
2022/07/03 08:53:02;;;;;;;2.03;0.60;;;;;;;29.72;12.17;100613.63;5095982;28;20115;-62
2022/07/03 08:55:29;;;;;;;5.20;0.93;;;;;;;29.62;11.82;100620.00;5103189;28;20118;-62
2022/07/03 08:57:58;;;;;;;3.95;0.68;;;;;;;29.53;12.50;100632.81;5109432;28;20397;-62
2022/07/03 09:00:26;;;;;;;4.95;0.90;;;;;;;29.69;11.80;100627.66;5112072;28;20031;-61
2022/07/03 09:02:54;;;;;;;5.82;0.90;;;;;;;29.53;12.27;100622.41;5100558;28;20122;-64
2022/07/03 09:05:22;;;;;;;3.00;0.70;;;;;;;29.56;11.86;100618.00;5096348;28;20113;-62
2022/07/03 09:07:49;;;;;;;4.57;0.70;;;;;;;29.63;11.97;100627.25;5093197;28;20128;-63
2022/07/03 09:10:18;;;;;;;5.03;0.80;;;;;;;29.55;11.88;100627.59;5110667;28;20020;-62
2022/07/03 09:12:46;;;;;;;10.60;1.10;;;;;;;29.38;11.95;100617.94;5099229;28;20036;-62
2022/07/03 09:15:14;;;;;;;3.28;0.98;;;;;;;29.47;12.19;100616.41;5104622;28;20389;-62
2022/07/03 09:17:55;;;;;;;5.78;0.90;;;;;;;29.34;12.31;100614.31;5105630;28;20098;-62
2022/07/03 09:20:28;;;;;;;5.45;0.98;;;;;;;29.39;11.92;100620.31;5095659;28;20028;-62
2022/07/03 09:23:15;;;;;;;3.67;0.68;;;;;;;29.36;12.00;100612.72;5095631;28;20032;-62
2022/07/03 09:25:52;;;;;;;3.83;0.80;;;;;;;29.47;11.46;100612.78;5093020;28;20032;-62
2022/07/03 09:28:43;;;;;;;10.38;0.90;;;;;;;29.58;11.50;100610.00;5095078;28;20119;-63
2022/07/03 09:31:17;;;;;;;6.63;0.70;;;;;;;29.60;11.35;100600.00;5082884;28;20050;-62
2022/07/03 09:33:56;;;;;;;27.64;2.00;;;;;;;29.51;11.45;100610.81;4977003;28;4111643;-62
2022/07/03 09:36:40;;;;;;;1.83;0.73;;;;;;;29.57;11.69;100605.59;5093332;28;20047;-62
2022/07/03 09:39:36;;;;;;;3.65;0.68;;;;;;;29.61;11.25;100612.00;5094490;28;20024;-62
2022/07/03 09:42:05;;;;;;;4.60;1.08;;;;;;;29.49;11.39;100618.81;5094549;28;20127;-61
2022/07/03 09:44:36;;;;;;;5.22;1.00;;;;;;;29.45;11.31;100615.16;5094764;28;20028;-62
2022/07/03 09:47:15;;;;;;;8.52;0.77;;;;;;;29.50;10.47;100606.41;5094760;28;20482;-62
2022/07/03 09:49:48;;;;;;;4.68;0.52;;;;;;;29.48;10.37;100615.19;5094671;28;20032;-62
2022/07/03 09:52:32;;;;;;;2.65;0.68;;;;;;;29.45;10.40;100610.41;5094221;28;20036;-61
2022/07/03 09:55:01;;;;;;;2.85;0.60;;;;;;;29.45;10.20;100616.00;5073959;28;20033;-62
2022/07/03 09:57:29;;;;;;;1.38;0.60;;;;;;;29.47;9.82;100618.41;5091212;28;20415;-62
2022/07/03 10:00:20;;;;;;;0.82;0.40;;;;;;;29.45;10.07;100624.41;5114615;28;20028;-61
2022/07/03 10:03:03;;;;;;;4.55;0.70;;;;;;;29.47;9.77;100618.41;5113477;28;20464;-61
2022/07/03 10:05:39;;;;;;;5.90;0.70;;;;;;;29.46;9.40;100614.00;5114492;28;20027;-62
2022/07/03 10:08:13;;;;;;;;;;;;;;;29.57;9.15;100617.59;5114853;28;20135;-61
2022/07/03 10:10:45;;;;;;;3.00;0.50;;;;;;;29.53;8.87;100611.19;5114206;27;19922;-63
2022/07/03 10:13:14;;;;;;;2.25;0.70;;;;;;;29.50;9.25;100614.81;5114566;28;20035;-61
2022/07/03 10:15:42;;;;;;;3.10;0.70;;;;;;;29.49;9.24;100616.00;5114139;28;20028;-62
2022/07/03 10:18:11;;;;;;;6.20;0.60;;;;;;;29.34;9.29;100615.13;5114267;28;20040;-62
2022/07/03 10:20:45;;;;;;;2.65;0.52;;;;;;;29.39;9.20;100622.31;5114360;28;20080;-62
2022/07/03 10:23:14;;;;;;;0.45;0.22;;;;;;;29.24;9.29;100609.47;5107315;28;20024;-61
2022/07/03 10:25:44;;;;;;;0.80;0.47;;;;;;;29.21;9.28;100627.06;5093665;28;20055;-62
2022/07/03 10:28:16;;;;;;;1.65;0.40;;;;;;;29.28;8.99;100624.31;5093336;28;20064;-62
2022/07/03 10:30:45;;;;;;;1.58;0.60;;;;;;;29.18;8.87;100637.84;5093305;28;20109;-61
2022/07/03 10:33:12;;;;;;;3.80;0.60;;;;;;;29.08;8.94;100627.41;5093524;28;20028;-61
2022/07/03 10:35:42;;;;;;;1.48;0.40;;;;;;;29.01;8.86;100632.19;5093212;28;20482;-60
2022/07/03 10:38:37;;;;;;;2.25;0.50;;;;;;;29.07;9.07;100631.41;5093549;28;20085;-61
2022/07/03 10:46:49;;;;;;;0.90;0.40;;;;;;;28.93;9.02;100616.56;5093175;28;20029;-63
2022/07/03 10:49:16;;;;;;;2.33;0.70;;;;;;;28.96;8.75;100622.16;5092539;28;20043;-62
2022/07/03 10:51:46;;;;;;;5.93;0.60;;;;;;;28.90;9.22;100629.31;5092863;28;20046;-62
2022/07/03 10:54:14;;;;;;;0.77;0.30;;;;;;;29.05;9.00;100617.00;5092866;28;20493;-63
2022/07/03 10:57:02;;;;;;;4.30;0.70;;;;;;;29.02;9.10;100626.19;5093468;28;20063;-63
2022/07/03 10:59:41;;;;;;;2.67;0.60;;;;;;;28.84;9.09;100630.84;5113571;28;20462;-62
2022/07/03 11:02:33;;;;;;;2.95;0.60;;;;;;;28.86;9.45;100620.09;5113335;28;20063;-62
2022/07/03 11:05:03;;;;;;;3.75;0.40;;;;;;;28.94;9.13;100624.56;5113265;28;20185;-62
2022/07/03 11:07:43;;;;;;;4.15;0.40;;;;;;;28.94;8.94;100630.16;5113233;28;20084;-61
2022/07/03 11:10:13;;;;;;;2.50;0.50;;;;;;;28.92;9.03;100621.34;5113445;28;20085;-62
2022/07/03 11:12:55;;;;;;;0.55;0.38;;;;;;;28.89;9.02;100633.31;5113124;28;20039;-62
2022/07/03 11:15:29;;;;;;;2.75;0.60;;;;;;;28.92;8.94;100629.75;5128959;27;20043;-61
2022/07/03 11:18:16;;;;;;;1.08;0.30;;;;;;;28.86;9.53;100628.50;5113218;28;20043;-62
2022/07/03 11:20:42;;;;;;;2.35;0.45;;;;;;;28.69;9.58;100624.38;5113158;28;20039;-61
2022/07/03 11:23:29;;;;;;;5.28;0.70;;;;;;;28.57;9.56;100617.13;5107065;28;20352;-61
2022/07/03 11:25:58;;;;;;;2.85;0.40;;;;;;;28.59;9.64;100617.53;5092876;28;20033;-62
2022/07/03 11:28:34;;;;;;;1.05;0.40;;;;;;;28.58;9.45;100618.72;5106693;28;20027;-60
2022/07/03 11:33:42;;;;;;;1.52;0.47;;;;;;;28.54;9.88;100633.84;5112993;28;20050;-61
2022/07/03 11:36:28;;;;;;;2.13;0.52;;;;;;;28.49;9.46;100632.25;5072531;28;20498;-61
2022/07/03 11:38:55;;;;;;;5.20;1.50;;;;;;;28.32;9.95;100638.50;5072317;28;20044;-61
2022/07/03 11:41:23;;;;;;;14.60;11.02;;;;;;;28.13;10.63;100633.13;5072411;28;20029;-61
2022/07/03 11:43:54;;;;;;;4.20;1.35;;;;;;;27.94;10.46;100634.97;5072548;28;20116;-61
2022/07/03 11:46:25;;;;;;;3.20;0.75;;;;;;;27.80;10.75;100629.22;5072538;28;20490;-61
2022/07/03 11:49:10;;;;;;;3.58;0.50;;;;;;;27.69;10.90;100637.50;5072338;28;20048;-61
2022/07/03 11:51:38;;;;;;;5.40;0.75;;;;;;;27.63;10.96;100635.44;5071028;28;20445;-61
2022/07/03 11:54:05;;;;;;;2.83;0.52;;;;;;;27.47;11.30;100640.41;5058807;28;20571;-61
2022/07/03 11:56:34;;;;;;;2.78;0.70;;;;;;;27.38;11.11;100641.53;5052311;28;20041;-61
2022/07/03 11:59:04;;;;;;;2.85;0.95;;;;;;;27.38;11.08;100635.94;5070466;28;20028;-61